createdAt,value
2019-05-22T00:04:40.447Z,32.80
2019-05-22T00:10:47.032Z,33.00
2019-05-22T00:16:52.188Z,32.27
2019-05-22T00:22:58.074Z,27.10
2019-05-22T00:29:03.955Z,28.90
2019-05-22T00:35:10.448Z,30.77
2019-05-22T00:41:18.222Z,26.73
2019-05-22T00:47:25.719Z,32.30
2019-05-22T00:53:45.084Z,30.00
2019-05-22T00:59:54.413Z,27.87
2019-05-22T01:05:59.896Z,28.07
2019-05-22T01:12:06.173Z,26.87
2019-05-22T01:18:12.398Z,31.57
2019-05-22T01:24:17.231Z,27.93
2019-05-22T01:30:41.650Z,31.53
2019-05-22T01:36:48.288Z,27.33
2019-05-22T01:42:54.589Z,29.47
2019-05-22T01:49:04.308Z,26.67
2019-05-22T01:55:10.049Z,27.27
2019-05-22T02:01:24.367Z,29.83
2019-05-22T02:07:29.356Z,28.50
2019-05-22T02:13:40.595Z,30.43
2019-05-22T02:19:46.182Z,25.60
2019-05-22T02:25:52.377Z,23.90
2019-05-22T02:31:58.530Z,26.50
2019-05-22T02:38:04.363Z,21.70
2019-05-22T02:44:09.472Z,29.77
2019-05-22T02:50:15.140Z,26.07
2019-05-22T02:56:20.524Z,27.40
2019-05-22T03:02:26.625Z,28.10
2019-05-22T03:08:58.625Z,23.43
2019-05-22T03:15:05.275Z,21.30
2019-05-22T03:21:09.995Z,27.17
2019-05-22T03:27:16.545Z,28.37
2019-05-22T03:33:21.666Z,27.03
2019-05-22T03:39:27.174Z,35.73
2019-05-22T03:45:32.922Z,30.40
2019-05-22T03:51:38.567Z,33.27
2019-05-22T03:57:45.599Z,31.77
2019-05-22T04:03:50.554Z,40.53
2019-05-22T04:09:55.528Z,41.53
2019-05-22T04:16:02.334Z,42.20
2019-05-22T04:22:07.427Z,31.43
2019-05-22T04:28:12.017Z,32.17
2019-05-22T04:34:18.053Z,33.07
2019-05-22T04:40:28.962Z,28.70
2019-05-22T04:46:34.277Z,37.13
2019-05-22T04:52:39.489Z,32.43
2019-05-22T04:58:44.466Z,36.00
2019-05-22T05:04:50.406Z,33.23
2019-05-22T05:10:56.196Z,34.83
2019-05-22T05:17:01.393Z,30.67
2019-05-22T05:23:06.054Z,28.40
2019-05-22T05:29:26.732Z,28.00
2019-05-22T05:35:32.764Z,30.57
2019-05-22T05:41:37.411Z,35.03
2019-05-22T05:47:42.458Z,29.83
2019-05-22T05:54:06.176Z,29.60
2019-05-22T06:00:19.834Z,33.50
2019-05-22T06:06:30.755Z,30.37
2019-05-22T06:12:36.394Z,31.50
2019-05-22T06:18:42.761Z,33.77
2019-05-22T06:25:03.018Z,37.10
2019-05-22T06:31:11.702Z,35.53
2019-05-22T06:37:52.171Z,36.33
2019-05-22T06:44:28.658Z,36.80
2019-05-22T06:50:33.269Z,36.53
2019-05-22T06:56:38.200Z,35.83
2019-05-22T07:02:43.207Z,35.33
2019-05-22T07:08:48.465Z,38.20
2019-05-22T07:15:11.441Z,39.27
2019-05-22T07:21:16.209Z,35.80
2019-05-22T07:27:27.004Z,34.90
2019-05-22T07:33:32.899Z,30.90
2019-05-22T07:39:37.465Z,31.73
2019-05-22T07:45:42.364Z,30.17
2019-05-22T07:51:56.189Z,34.80
2019-05-22T07:58:17.235Z,33.10
2019-05-22T08:04:22.446Z,36.00
2019-05-22T08:10:28.156Z,30.47
2019-05-22T08:16:33.173Z,26.00
2019-05-22T08:22:39.500Z,22.87
2019-05-22T08:28:45.105Z,27.33
2019-05-22T08:34:50.575Z,24.23
2019-05-22T08:40:55.497Z,26.53
2019-05-22T08:47:01.448Z,21.90
2019-05-22T08:53:07.094Z,22.63
2019-05-22T08:59:19.396Z,20.07
2019-05-22T09:05:21.428Z,15.97
2019-05-22T09:11:25.278Z,18.63
2019-05-22T09:17:30.349Z,17.67
2019-05-22T09:23:36.226Z,14.50
2019-05-22T09:29:40.920Z,11.57
2019-05-22T09:35:46.015Z,17.40
2019-05-22T09:41:50.667Z,15.13
2019-05-22T09:47:56.479Z,12.87
2019-05-22T09:54:01.043Z,9.20
2019-05-22T10:00:11.733Z,11.67
2019-05-22T10:06:16.702Z,9.80
2019-05-22T10:12:21.967Z,10.03
2019-05-22T10:18:26.777Z,11.40
2019-05-22T10:24:31.341Z,10.40
2019-05-22T10:30:36.175Z,11.20
2019-05-22T10:36:43.247Z,9.07
2019-05-22T10:42:47.805Z,12.13
2019-05-22T10:48:53.413Z,9.40
2019-05-22T10:54:58.591Z,7.03
2019-05-22T11:01:03.811Z,21.77
2019-05-22T11:07:10.185Z,12.77
2019-05-22T11:13:15.312Z,15.00
2019-05-22T11:19:19.952Z,10.03
2019-05-22T11:25:25.260Z,13.33
2019-05-22T11:31:30.732Z,16.90
2019-05-22T11:37:35.940Z,12.00
2019-05-22T11:43:40.737Z,8.70
2019-05-22T11:49:45.453Z,10.50
2019-05-22T11:55:50.123Z,13.63
2019-05-22T12:01:55.288Z,9.60
2019-05-22T12:08:00.206Z,20.00
2019-05-22T12:14:06.092Z,14.67
2019-05-22T12:20:14.232Z,15.20
2019-05-22T12:26:20.567Z,11.30
2019-05-22T12:32:26.651Z,9.03
2019-05-22T12:38:33.019Z,13.20
2019-05-22T12:44:38.820Z,11.40
2019-05-22T12:50:43.659Z,10.47
2019-05-22T12:56:48.711Z,10.30
2019-05-22T13:02:55.440Z,13.83
2019-05-22T13:09:02.032Z,8.00
2019-05-22T13:15:10.852Z,10.83
2019-05-22T13:21:18.679Z,9.63
2019-05-22T13:27:24.937Z,11.20
2019-05-22T13:33:29.546Z,7.57
2019-05-22T13:39:35.130Z,10.77
2019-05-22T13:45:40.336Z,10.13
2019-05-22T13:51:45.321Z,9.00
2019-05-22T13:57:51.586Z,10.27
2019-05-22T14:03:56.569Z,7.60
2019-05-22T14:10:02.727Z,9.97
2019-05-22T14:16:07.860Z,8.97
2019-05-22T14:22:12.876Z,9.90
2019-05-22T14:28:19.351Z,8.47
2019-05-22T14:34:24.656Z,11.00
2019-05-22T14:40:31.317Z,10.40
2019-05-22T14:46:36.013Z,6.87
2019-05-22T14:52:41.949Z,9.10
2019-05-22T14:58:47.376Z,10.93
2019-05-22T15:04:52.318Z,13.53
2019-05-22T15:10:58.157Z,8.13
2019-05-22T15:17:02.723Z,9.33
2019-05-22T15:23:08.776Z,10.63
2019-05-22T15:29:13.642Z,7.20
2019-05-22T15:35:18.631Z,7.03
2019-05-22T15:41:23.833Z,4.80
2019-05-22T15:47:28.645Z,24.57
2019-05-22T15:53:33.644Z,9.67
2019-05-22T15:59:40.520Z,6.70
2019-05-22T16:05:46.483Z,7.03
2019-05-22T16:11:53.839Z,5.37
2019-05-22T16:18:11.067Z,5.93
2019-05-22T16:24:10.934Z,6.90
2019-05-22T16:30:16.647Z,4.47
2019-05-22T16:36:23.895Z,5.13
2019-05-22T16:42:29.917Z,5.23
2019-05-22T16:48:35.333Z,8.33
2019-05-22T16:54:43.105Z,5.30
2019-05-22T17:00:49.383Z,4.37
2019-05-22T17:06:54.781Z,4.40
2019-05-22T17:13:00.421Z,4.40
2019-05-22T17:19:23.807Z,5.73
2019-05-22T17:25:14.756Z,4.90
2019-05-22T17:31:19.889Z,4.70
2019-05-22T17:37:26.880Z,5.60
2019-05-22T17:43:33.828Z,7.80
2019-05-22T17:49:39.118Z,6.57
2019-05-22T17:55:44.711Z,5.57
2019-05-22T18:01:50.192Z,5.40
2019-05-22T18:07:54.931Z,4.10
2019-05-22T18:14:03.923Z,5.93
2019-05-22T18:20:10.059Z,4.40
2019-05-22T18:26:14.998Z,7.27
2019-05-22T18:32:19.792Z,7.70
2019-05-22T18:38:24.707Z,6.23
2019-05-22T18:44:29.417Z,4.57
2019-05-22T18:50:34.734Z,4.93
2019-05-22T18:56:39.464Z,6.10
2019-05-22T19:02:44.865Z,5.50
2019-05-22T19:08:49.629Z,3.77
2019-05-22T19:14:54.289Z,3.90
2019-05-22T19:20:59.485Z,6.23
2019-05-22T19:27:04.127Z,7.43
2019-05-22T19:33:09.208Z,6.23
2019-05-22T19:39:13.789Z,15.47
2019-05-22T19:45:19.095Z,4.53
2019-05-22T19:51:24.276Z,6.40
2019-05-22T19:57:28.921Z,6.40
2019-05-22T20:03:33.633Z,5.97
2019-05-22T20:09:39.725Z,6.10
2019-05-22T20:15:44.356Z,5.63
2019-05-22T20:21:49.734Z,8.87
2019-05-22T20:27:54.749Z,6.77
2019-05-22T20:33:59.462Z,6.60
2019-05-22T20:40:08.739Z,5.30
2019-05-22T20:46:15.068Z,8.03
2019-05-22T20:52:22.286Z,7.80
2019-05-22T20:58:28.650Z,7.03
2019-05-22T21:04:33.565Z,11.90
2019-05-22T21:10:40.916Z,7.93
2019-05-22T21:16:46.718Z,7.53
2019-05-22T21:22:52.468Z,9.03
2019-05-22T21:28:57.722Z,7.50
2019-05-22T21:35:03.140Z,10.77
2019-05-22T21:41:08.266Z,7.47
2019-05-22T21:47:13.164Z,7.87
2019-05-22T21:53:18.289Z,13.80
2019-05-22T21:59:23.758Z,10.90
2019-05-22T22:05:30.509Z,5.80
2019-05-22T22:11:36.567Z,7.90
2019-05-22T22:17:43.156Z,5.97
2019-05-22T22:23:48.216Z,9.70
2019-05-22T22:29:53.795Z,7.67
2019-05-22T22:35:59.653Z,6.77
2019-05-22T22:42:06.909Z,5.90
2019-05-22T22:48:13.752Z,13.87
2019-05-22T22:54:19.819Z,5.40
2019-05-22T23:00:27.119Z,11.80
2019-05-22T23:06:35.926Z,7.67
2019-05-22T23:12:39.669Z,8.47
2019-05-22T23:18:51.381Z,5.50
2019-05-22T23:24:58.666Z,11.23
2019-05-22T23:31:05.387Z,8.23
2019-05-22T23:37:11.072Z,10.33
2019-05-22T23:43:17.835Z,6.70
2019-05-22T23:49:23.275Z,7.37
2019-05-22T23:55:29.644Z,9.33
